createdAt,value
2017-01-07T01:40:02.351Z,0
2017-01-07T01:50:02.732Z,0
2017-01-07T02:00:03.145Z,0
2017-01-07T02:10:02.524Z,0
2017-01-07T02:20:03.048Z,0
2017-01-07T02:30:02.436Z,0
2017-01-07T02:40:02.877Z,0
2017-01-07T02:50:03.291Z,0
2017-01-07T03:00:02.708Z,0
2017-01-07T03:10:03.123Z,0
2017-01-07T03:20:02.577Z,0
2017-01-07T03:30:02.964Z,0
2017-01-07T03:40:02.404Z,0
2017-01-07T03:50:02.841Z,0
2017-01-07T04:00:03.242Z,0
2017-01-07T04:10:02.655Z,0
2017-01-07T04:20:03.185Z,0
2017-01-07T04:30:02.584Z,0
2017-01-07T04:40:02.988Z,0
2017-01-07T04:50:02.430Z,0
2017-01-07T05:00:02.843Z,0
2017-01-07T05:10:03.282Z,0
2017-01-07T05:20:02.720Z,0
2017-01-07T05:30:03.094Z,0
2017-01-07T05:40:02.456Z,0
2017-01-07T05:50:02.652Z,0
2017-01-07T06:00:03.048Z,0
2017-01-07T06:10:02.469Z,0
2017-01-07T06:20:02.978Z,0
2017-01-07T06:30:02.393Z,0
2017-01-07T06:40:02.802Z,0
2017-01-07T06:50:03.253Z,0
2017-01-07T07:00:02.627Z,257
2017-01-07T07:10:03.043Z,771
2017-01-07T07:20:02.554Z,2056
2017-01-07T07:30:02.974Z,4883
2017-01-07T07:40:02.408Z,7196
2017-01-07T07:50:02.847Z,13621
2017-01-07T08:00:03.260Z,23130
2017-01-07T08:10:02.646Z,30069
2017-01-07T08:20:03.191Z,35980
2017-01-07T08:30:02.572Z,42405
2017-01-07T08:40:03.001Z,48573
2017-01-07T08:50:02.439Z,63222
2017-01-07T09:00:02.851Z,15163
2017-01-07T09:10:03.295Z,19018
2017-01-07T09:20:02.796Z,65278
2017-01-07T09:30:03.794Z,0
2017-01-07T09:40:03.219Z,10537
2017-01-07T09:50:06.109Z,5911
2017-01-07T10:00:02.516Z,61680
2017-01-07T10:10:02.940Z,63479
2017-01-07T10:20:02.449Z,7710
2017-01-07T10:30:02.832Z,13621
2017-01-07T10:40:03.268Z,9509
2017-01-07T10:50:02.660Z,42662
2017-01-07T11:00:03.082Z,5654
2017-01-07T11:10:02.443Z,55512
2017-01-07T11:20:02.978Z,35466
2017-01-07T11:30:02.392Z,6682
2017-01-07T11:40:07.792Z,61680
2017-01-07T11:50:08.229Z,26728
2017-01-07T12:00:02.646Z,17476
2017-01-07T12:10:03.052Z,55769
2017-01-07T12:20:02.549Z,64764
2017-01-07T12:30:02.928Z,22359
2017-01-07T12:40:02.372Z,24158
2017-01-07T12:50:02.781Z,15420
2017-01-07T13:00:03.155Z,21331
2017-01-07T13:10:02.566Z,37008
2017-01-07T13:20:03.062Z,5397
2017-01-07T13:30:02.446Z,58339
2017-01-07T13:40:02.816Z,59624
2017-01-07T13:50:03.246Z,40349
2017-01-07T14:00:02.646Z,44718
2017-01-07T14:10:05.088Z,42919
2017-01-07T14:20:02.586Z,31868
2017-01-07T14:30:03.011Z,19789
2017-01-07T14:40:02.425Z,12593
2017-01-07T14:50:02.858Z,8738
2017-01-07T15:00:03.269Z,7196
2017-01-07T15:10:02.661Z,5397
2017-01-07T15:20:03.237Z,3084
2017-01-07T15:30:02.633Z,1028
2017-01-07T15:40:03.031Z,771
2017-01-07T15:50:02.426Z,257
2017-01-07T16:00:02.794Z,0
2017-01-07T16:10:03.189Z,0
2017-01-07T16:20:02.914Z,0
2017-01-07T16:30:02.358Z,0
2017-01-07T16:40:02.801Z,0
2017-01-07T17:00:02.736Z,0
2017-01-07T17:10:03.160Z,0
2017-01-07T17:20:02.683Z,0
2017-01-07T17:40:02.372Z,0
2017-01-07T17:50:02.887Z,0
2017-01-07T18:00:03.293Z,0
2017-01-07T18:10:02.692Z,0
2017-01-07T18:20:03.209Z,0
2017-01-07T18:30:02.653Z,0
2017-01-07T18:40:03.085Z,0
2017-01-07T18:50:02.547Z,0
2017-01-07T19:00:02.961Z,0
2017-01-07T19:10:02.371Z,0
2017-01-07T19:20:02.912Z,0
2017-01-07T19:30:02.305Z,0
2017-01-07T19:40:02.743Z,0
2017-01-07T19:50:03.157Z,0
2017-01-07T20:00:03.315Z,0
2017-01-07T20:10:02.728Z,0
2017-01-07T20:20:03.264Z,0
2017-01-07T20:30:02.652Z,0
2017-01-07T20:40:03.120Z,0
2017-01-07T20:50:02.545Z,0
2017-01-07T21:00:02.954Z,0
2017-01-07T21:10:02.365Z,0
2017-01-07T21:20:02.965Z,0
2017-01-07T21:30:02.468Z,0
2017-01-07T21:40:02.918Z,0
2017-01-07T21:50:03.631Z,0
2017-01-07T22:00:04.698Z,0
2017-01-07T22:10:03.233Z,0
2017-01-07T22:20:02.813Z,0
2017-01-07T22:30:03.217Z,0
2017-01-07T22:40:02.569Z,0
2017-01-07T22:50:03.021Z,0
2017-01-07T23:00:02.494Z,0
2017-01-07T23:10:02.899Z,0
2017-01-07T23:20:02.420Z,0
2017-01-07T23:30:02.850Z,0
2017-01-07T23:40:03.268Z,0
2017-01-07T23:50:02.628Z,0
